Главная страница
METAR-TAF:

METAR-TAF

Аэропорты :

Leesburg, Виргиния, США

широта: 39-05N, долгота: 077-34W, высота над уровнем моря: 119 м

Текущие метеонаблюдения

Эта сводка был подготовлена 29 минут назад, в 01:15 UTC
Ветер 13 Узел от северо-западный с порывами до 17 Узел
Температура -8°C
Влажность 57%
Давление 1034 hPa
Видимость: 16.1 км
ясное небо

METAR: KJYO 220115Z AUTO 32013G17KT 10SM CLR M08/M15 A3053 RMK AO2

Время: 20:44 (01:44 UTC)


TAF: отсутствует

Метеонаблюдения и прогнозы для более 4000 аэропортов (сводки METAR и TAF).

Имеющиеся станции представлены на карте желтыми и красными точками.

Чтобы увидеть название станции, наведите на нее мышь.

Затем щелкните, чтобы увидеть метеонаблюдения и метеопрогнозы.

Управление картой: чтобы увеличить масштаб, щелкните зеленые кнопки с черным крестиком; чтобы уменьшить масштаб, щелкните зеленую кнопку с тире; для просмотра соседних карт щелкайте зеленые стрелки.


METAR-TAF: